Time;durP1;ratioP1;P1;durP2;ratioP2;P2;SDS_P1;SDS_P2;PMS_P1;PMS_P2;Temp;Humidity;BMP_temperature;BMP_pressure;BME280_temperature;BME280_humidity;BME280_pressure;Samples;Min_cycle;Max_cycle;Signal;HPM_P1;HPM_P2
2022/12/10 00:00:41;;;;;;;32.67;14.07;;;1.10;99.90;;;;;;4990492;28;20240;-64
2022/12/10 00:03:10;;;;;;;25.63;12.97;;;1.10;99.90;;;;;;5003815;28;20287;-64
2022/12/10 00:05:37;;;;;;;32.90;14.20;;;1.10;99.90;;;;;;4998986;28;20714;-64
2022/12/10 00:08:04;;;;;;;30.13;14.77;;;1.10;99.90;;;;;;4995512;28;20776;-64
2022/12/10 00:10:32;;;;;;;30.17;12.83;;;;;;;;;;4975310;28;20853;-64
2022/12/10 00:12:58;;;;;;;25.13;13.43;;;1.10;99.90;;;;;;5005076;28;20291;-64
2022/12/10 00:15:25;;;;;;;33.77;15.00;;;1.20;99.90;;;;;;4997072;28;20295;-64
2022/12/10 00:17:52;;;;;;;29.40;13.07;;;1.10;99.90;;;;;;5001769;28;20339;-64
2022/12/10 00:20:20;;;;;;;30.70;13.20;;;1.10;99.90;;;;;;5001935;28;20860;-64
2022/12/10 00:22:47;;;;;;;28.97;14.40;;;1.10;99.90;;;;;;4979605;28;20337;-64
2022/12/10 00:25:14;;;;;;;27.50;15.07;;;1.00;99.90;;;;;;5005012;28;20723;-64
2022/12/10 00:27:41;;;;;;;31.77;13.90;;;1.00;99.90;;;;;;4971517;28;20301;-64
2022/12/10 00:30:09;;;;;;;28.23;13.50;;;1.00;99.90;;;;;;4999614;28;20294;-64
2022/12/10 00:32:35;;;;;;;27.77;13.77;;;1.00;99.90;;;;;;4995900;28;20290;-64
2022/12/10 00:35:02;;;;;;;29.07;14.07;;;1.00;99.90;;;;;;5010339;28;20324;-64
2022/12/10 00:37:30;;;;;;;27.53;12.63;;;1.10;99.90;;;;;;4997011;28;20259;-65
2022/12/10 00:39:57;;;;;;;27.97;14.20;;;1.10;99.90;;;;;;5013999;28;20229;-64
2022/12/10 00:42:24;;;;;;;40.67;19.83;;;1.00;99.90;;;;;;4979994;28;20279;-64
2022/12/10 00:44:51;;;;;;;32.00;16.87;;;1.10;99.90;;;;;;5001898;28;20243;-64
2022/12/10 00:47:18;;;;;;;26.67;13.73;;;1.00;99.90;;;;;;4997569;28;20796;-64
2022/12/10 00:49:45;;;;;;;25.97;13.13;;;1.10;99.90;;;;;;5008236;28;20286;-65
2022/12/10 00:52:12;;;;;;;26.80;11.90;;;1.10;99.90;;;;;;5012924;28;20643;-62
2022/12/10 00:54:40;;;;;;;35.10;14.73;;;1.10;99.90;;;;;;4998044;28;20226;-65
2022/12/10 00:57:07;;;;;;;28.33;13.50;;;1.20;99.90;;;;;;5010965;28;20204;-64
2022/12/10 00:59:34;;;;;;;30.47;14.43;;;1.20;99.90;;;;;;4970877;28;20322;-65
2022/12/10 01:02:01;;;;;;;29.00;13.93;;;1.20;99.90;;;;;;4996041;28;20294;-64
2022/12/10 01:04:28;;;;;;;24.47;13.73;;;1.20;99.90;;;;;;5009893;28;20315;-64
2022/12/10 01:06:55;;;;;;;26.53;12.73;;;1.20;99.90;;;;;;5005832;28;20825;-64
2022/12/10 01:09:24;;;;;;;29.77;13.83;;;1.20;99.90;;;;;;5000490;28;20226;-65
2022/12/10 01:11:54;;;;;;;35.50;14.53;;;1.20;99.90;;;;;;5006173;28;20338;-64
2022/12/10 01:14:23;;;;;;;24.87;12.50;;;1.10;99.90;;;;;;4978558;28;20207;-64
2022/12/10 01:16:50;;;;;;;27.67;14.27;;;1.20;99.90;;;;;;4998125;28;21556;-65
2022/12/10 01:19:17;;;;;;;30.17;15.63;;;1.30;99.90;;;;;;5006927;28;20218;-64
2022/12/10 01:21:44;;;;;;;27.87;14.67;;;1.30;99.90;;;;;;5006612;28;20308;-64
2022/12/10 01:24:11;;;;;;;27.77;14.30;;;1.30;99.90;;;;;;5009542;28;20296;-64
2022/12/10 01:26:38;;;;;;;28.57;14.40;;;1.30;99.90;;;;;;4994424;28;20300;-65
2022/12/10 01:29:06;;;;;;;30.20;14.07;;;1.30;99.90;;;;;;4978142;28;20204;-65
2022/12/10 01:31:35;;;;;;;30.30;12.77;;;1.30;99.90;;;;;;4993594;28;20841;-65
2022/12/10 01:34:03;;;;;;;25.17;13.93;;;1.20;99.90;;;;;;5005656;28;21160;-65
2022/12/10 01:36:33;;;;;;;30.93;14.00;;;1.20;99.90;;;;;;5002851;28;20198;-65
2022/12/10 01:39:01;;;;;;;30.10;14.03;;;1.20;99.90;;;;;;5007001;28;20614;-65
2022/12/10 01:41:31;;;;;;;27.93;14.37;;;1.20;99.90;;;;;;4996313;28;20290;-65
2022/12/10 01:44:00;;;;;;;28.70;14.23;;;1.10;99.90;;;;;;4975387;28;22615;-65
2022/12/10 01:46:31;;;;;;;28.40;13.17;;;1.30;99.90;;;;;;4996274;28;20745;-64
2022/12/10 01:48:58;;;;;;;26.13;13.20;;;1.20;99.90;;;;;;5006853;28;20233;-65
2022/12/10 01:51:27;;;;;;;30.80;15.10;;;1.20;99.90;;;;;;5002274;28;20660;-65
2022/12/10 01:53:54;;;;;;;25.70;13.30;;;1.20;99.90;;;;;;5008358;28;20322;-65
2022/12/10 01:56:22;;;;;;;27.37;12.87;;;1.10;99.90;;;;;;5003003;28;20349;-65
2022/12/10 01:58:51;;;;;;;29.87;15.03;;;1.20;99.90;;;;;;4999527;28;20397;-65
2022/12/10 02:01:26;;;;;;;27.33;13.70;;;1.20;99.90;;;;;;4958061;28;20213;-65
2022/12/10 02:04:05;;;;;;;28.60;14.40;;;2.10;99.90;;;;;;4991824;28;20369;-65
2022/12/10 02:06:45;;;;;;;27.33;14.23;;;1.20;99.90;;;;;;4992496;28;20820;-64
2022/12/10 02:09:22;;;;;;;30.77;15.30;;;1.20;99.90;;;;;;5008534;28;20295;-64
2022/12/10 02:11:59;;;;;;;28.00;13.30;;;1.20;99.90;;;;;;4992340;28;20334;-65
2022/12/10 02:14:34;;;;;;;29.83;14.93;;;1.20;99.90;;;;;;5004371;28;20390;-64
2022/12/10 02:17:08;;;;;;;25.80;14.10;;;1.20;99.90;;;;;;4974958;28;20214;-64
2022/12/10 02:19:52;;;;;;;25.53;14.00;;;1.30;99.90;;;;;;4996219;28;20295;-64
2022/12/10 02:22:20;;;;;;;30.80;13.73;;;1.20;99.90;;;;;;4988376;28;20393;-64
2022/12/10 02:24:49;;;;;;;25.70;13.27;;;1.20;99.90;;;;;;5005206;28;20330;-65
2022/12/10 02:27:22;;;;;;;27.37;12.97;;;1.20;99.90;;;;;;4993790;28;21678;-64
2022/12/10 02:29:53;;;;;;;30.30;14.60;;;1.30;99.90;;;;;;4983480;28;20294;-65
2022/12/10 02:32:24;;;;;;;28.90;14.70;;;1.30;99.90;;;;;;5003244;28;20224;-65
2022/12/10 02:34:54;;;;;;;30.90;14.87;;;1.30;99.90;;;;;;4986195;28;20325;-65
2022/12/10 02:37:27;;;;;;;31.03;14.30;;;1.20;99.90;;;;;;4992566;28;20317;-64
2022/12/10 02:39:56;;;;;;;25.47;13.60;;;1.20;99.90;;;;;;5002392;28;20295;-65
2022/12/10 02:42:25;;;;;;;31.40;15.93;;;1.20;99.90;;;;;;4997611;28;20307;-65
2022/12/10 02:44:56;;;;;;;37.00;15.17;;;1.20;99.90;;;;;;5002077;28;20369;-64
2022/12/10 02:47:24;;;;;;;28.70;13.67;;;1.20;99.90;;;;;;4970729;28;20218;-65
2022/12/10 02:49:54;;;;;;;29.03;14.83;;;1.30;99.90;;;;;;4989658;28;20751;-65
2022/12/10 02:52:24;;;;;;;31.43;16.07;;;1.30;99.90;;;;;;4981799;28;20329;-64
2022/12/10 02:54:51;;;;;;;32.33;14.80;;;1.30;99.90;;;;;;5002998;28;20212;-65
2022/12/10 02:57:33;;;;;;;31.23;15.30;;;1.20;99.90;;;;;;4976493;28;20694;-64
2022/12/10 03:00:09;;;;;;;29.10;15.20;;;1.30;99.90;;;;;;5005053;28;20286;-64
2022/12/10 03:02:46;;;;;;;25.23;14.03;;;1.20;99.90;;;;;;4979350;28;20377;-65
2022/12/10 03:05:18;;;;;;;29.93;14.30;;;1.20;99.90;;;;;;4999586;28;20327;-65
2022/12/10 03:07:50;;;;;;;27.33;13.53;;;1.20;99.90;;;;;;5005112;28;20343;-64
2022/12/10 03:10:27;;;;;;;27.47;13.57;;;1.20;99.90;;;;;;4989069;28;20295;-64
2022/12/10 03:12:59;;;;;;;27.17;14.23;;;1.20;99.90;;;;;;5006445;28;20524;-65
2022/12/10 03:15:30;;;;;;;30.37;14.50;;;1.20;99.90;;;;;;4994783;28;20230;-64
2022/12/10 03:18:00;;;;;;;28.43;14.77;;;1.20;99.90;;;;;;4975010;28;20260;-64
2022/12/10 03:20:27;;;;;;;25.03;13.73;;;1.20;99.90;;;;;;4994976;28;20659;-65
2022/12/10 03:22:55;;;;;;;32.80;16.23;;;1.30;99.90;;;;;;4994438;28;20834;-65
2022/12/10 03:25:25;;;;;;;33.23;15.03;;;1.20;99.90;;;;;;4995594;28;20350;-65
2022/12/10 03:27:56;;;;;;;33.03;14.63;;;1.20;99.90;;;;;;5003522;28;20800;-64
2022/12/10 03:30:23;;;;;;;34.90;15.07;;;1.20;99.90;;;;;;4990638;28;20327;-65
2022/12/10 03:32:52;;;;;;;29.43;15.73;;;1.20;99.90;;;;;;5008995;28;20231;-64
2022/12/10 03:35:21;;;;;;;30.27;14.87;;;1.30;99.90;;;;;;4974660;28;20318;-65
2022/12/10 03:37:49;;;;;;;31.37;15.63;;;1.30;99.90;;;;;;4994759;28;20343;-65
2022/12/10 03:40:18;;;;;;;35.83;16.13;;;1.30;99.90;;;;;;4988416;28;20218;-65
2022/12/10 03:42:45;;;;;;;31.00;14.53;;;1.30;99.90;;;;;;5001698;28;20573;-65
2022/12/10 03:45:12;;;;;;;30.00;14.77;;;1.30;99.90;;;;;;4986023;28;20739;-65
2022/12/10 03:47:39;;;;;;;31.07;14.43;;;1.30;99.90;;;;;;5001616;28;20427;-64
2022/12/10 03:50:08;;;;;;;26.83;15.10;;;1.20;99.90;;;;;;4978228;28;20208;-64
2022/12/10 03:52:35;;;;;;;33.73;14.67;;;1.30;99.90;;;;;;4989954;28;20767;-64
2022/12/10 03:55:03;;;;;;;27.70;13.83;;;1.30;99.90;;;;;;4995238;28;20293;-65
2022/12/10 03:57:30;;;;;;;29.63;15.67;;;1.30;99.90;;;;;;5002464;28;20210;-64
2022/12/10 03:59:57;;;;;;;29.33;15.50;;;1.20;99.90;;;;;;4997288;28;20208;-65
2022/12/10 04:02:23;;;;;;;31.47;15.03;;;1.20;99.90;;;;;;4991389;28;20305;-65
2022/12/10 04:04:50;;;;;;;27.50;14.90;;;1.20;99.90;;;;;;4971797;28;20721;-64
2022/12/10 04:07:18;;;;;;;31.43;14.90;;;1.20;99.90;;;;;;5000712;28;20392;-65
2022/12/10 04:09:45;;;;;;;31.50;14.77;;;1.10;99.90;;;;;;4988621;28;20347;-65
2022/12/10 04:12:12;;;;;;;27.93;14.40;;;1.10;99.90;;;;;;5011110;28;22368;-64
2022/12/10 04:17:23;;;;;;;29.37;14.80;;;1.00;99.90;;;;;;5009968;28;20725;-64
2022/12/10 04:19:50;;;;;;;26.30;13.47;;;0.90;99.90;;;;;;5007343;28;20291;-65
2022/12/10 04:27:50;;;;;;;29.97;14.77;;;0.90;99.90;;;;;;4988686;28;20929;-64
2022/12/10 04:30:17;;;;;;;35.43;14.53;;;0.80;99.90;;;;;;5001112;28;20290;-64
2022/12/10 04:32:43;;;;;;;28.07;13.50;;;0.80;99.90;;;;;;5008410;28;21274;-64
2022/12/10 04:35:10;;;;;;;29.63;13.93;;;0.80;99.90;;;;;;5005076;28;20326;-64
2022/12/10 04:37:39;;;;;;;31.23;14.27;;;0.90;99.90;;;;;;4973836;28;20298;-65
2022/12/10 04:40:07;;;;;;;30.90;14.60;;;0.80;99.90;;;;;;4996407;28;20293;-64
2022/12/10 04:42:34;;;;;;;28.47;13.70;;;0.80;99.90;;;;;;5008842;28;20299;-64
2022/12/10 04:45:01;;;;;;;29.33;14.33;;;0.80;99.90;;;;;;5012560;28;20356;-64
2022/12/10 04:47:28;;;;;;;30.27;13.87;;;0.80;99.90;;;;;;4998619;28;20300;-64
2022/12/10 04:49:55;;;;;;;28.83;14.93;;;0.80;99.90;;;;;;5010591;28;20290;-65
2022/12/10 04:52:22;;;;;;;28.77;14.57;;;0.80;99.90;;;;;;5002305;28;20257;-65
2022/12/10 04:54:50;;;;;;;27.37;13.80;;;0.70;99.90;;;;;;4993189;28;20302;-64
2022/12/10 04:57:17;;;;;;;22.33;13.23;;;0.80;99.90;;;;;;4993103;28;20285;-64
2022/12/10 04:59:43;;;;;;;29.17;14.70;;;0.70;99.90;;;;;;5010337;28;20300;-64
2022/12/10 05:02:10;;;;;;;25.90;14.57;;;0.70;99.90;;;;;;4991473;28;20349;-65
2022/12/10 05:04:37;;;;;;;25.43;13.40;;;0.70;99.90;;;;;;5011489;28;21032;-64
2022/12/10 05:07:04;;;;;;;29.07;13.90;;;0.60;99.90;;;;;;5004453;28;20968;-64
2022/12/10 05:09:31;;;;;;;28.53;13.63;;;0.60;99.90;;;;;;4980539;28;20361;-64
2022/12/10 05:11:59;;;;;;;29.33;13.63;;;0.60;99.90;;;;;;4991040;28;20322;-64
2022/12/10 05:14:26;;;;;;;27.97;13.60;;;0.50;99.90;;;;;;5007571;28;21008;-64
2022/12/10 05:16:53;;;;;;;27.57;13.90;;;0.40;99.90;;;;;;4991659;28;20302;-64
2022/12/10 05:19:21;;;;;;;29.33;14.00;;;0.50;99.90;;;;;;5009158;28;20786;-64
2022/12/10 05:24:33;;;;;;;29.03;14.30;;;0.40;99.90;;;;;;4981846;28;20687;-64
2022/12/10 05:27:01;;;;;;;24.20;12.67;;;0.40;99.90;;;;;;4982032;28;20301;-64
2022/12/10 05:29:28;;;;;;;28.50;15.03;;;0.50;99.90;;;;;;5006887;28;20199;-64
2022/12/10 05:31:55;;;;;;;26.10;13.13;;;0.40;99.90;;;;;;4996895;28;20297;-64
2022/12/10 05:34:22;;;;;;;25.43;11.57;;;0.40;99.90;;;;;;4995171;28;20328;-64
2022/12/10 05:36:49;;;;;;;25.00;12.60;;;0.40;99.90;;;;;;5009253;28;20209;-64
2022/12/10 05:39:16;;;;;;;25.77;12.60;;;0.30;99.90;;;;;;4977032;28;20220;-64
2022/12/10 05:41:45;;;;;;;26.97;13.70;;;0.30;99.90;;;;;;4988716;28;20304;-64
2022/12/10 05:44:14;;;;;;;29.10;13.50;;;0.40;99.90;;;;;;5000198;28;20198;-64
2022/12/10 05:46:41;;;;;;;23.73;13.07;;;0.40;99.90;;;;;;4991528;28;21055;-64
2022/12/10 05:49:08;;;;;;;31.13;13.17;;;0.30;99.90;;;;;;4997238;28;20297;-64
2022/12/10 05:51:38;;;;;;;30.87;13.70;;;0.30;99.90;;;;;;5008278;28;20275;-64
2022/12/10 05:54:08;;;;;;;26.67;14.73;;;0.40;99.90;;;;;;5006389;28;20209;-64
2022/12/10 05:56:36;;;;;;;27.67;12.83;;;0.50;99.90;;;;;;4975266;28;20217;-64
2022/12/10 05:59:04;;;;;;;23.40;13.10;;;0.50;99.90;;;;;;4993271;28;20233;-64
2022/12/10 06:01:34;;;;;;;28.33;13.40;;;0.40;99.90;;;;;;4999291;28;20314;-64
2022/12/10 06:04:03;;;;;;;25.07;12.97;;;0.50;99.90;;;;;;4996559;28;20655;-64
2022/12/10 06:06:32;;;;;;;31.67;14.37;;;0.40;99.90;;;;;;5005703;28;20789;-64
2022/12/10 06:08:59;;;;;;;30.07;13.43;;;0.40;99.90;;;;;;5003465;28;20237;-64
2022/12/10 06:11:27;;;;;;;27.43;13.13;;;0.40;99.90;;;;;;4977213;28;20351;-64
2022/12/10 06:13:55;;;;;;;24.57;13.80;;;0.30;99.90;;;;;;4993360;28;20367;-64
2022/12/10 06:16:22;;;;;;;24.93;13.10;;;0.30;99.90;;;;;;5005409;28;20256;-64
2022/12/10 06:18:50;;;;;;;29.57;14.03;;;0.30;99.90;;;;;;4981974;28;20301;-64
2022/12/10 06:21:18;;;;;;;27.57;13.23;;;0.30;99.90;;;;;;4997898;28;20270;-64
2022/12/10 06:23:46;;;;;;;23.70;12.00;;;0.40;99.90;;;;;;5002613;28;21315;-64
2022/12/10 06:26:15;;;;;;;26.77;13.77;;;0.30;99.90;;;;;;4978167;28;20316;-64
2022/12/10 06:28:42;;;;;;;24.93;11.33;;;0.30;99.90;;;;;;4996058;28;20301;-64
2022/12/10 06:31:09;;;;;;;26.67;11.93;;;0.40;99.90;;;;;;5012789;28;20204;-64
2022/12/10 06:33:36;;;;;;;24.83;12.33;;;0.20;99.90;;;;;;4999877;28;20312;-64
2022/12/10 06:36:06;;;;;;;27.50;13.27;;;0.20;99.90;;;;;;5004797;28;20339;-64
2022/12/10 06:38:34;;;;;;;28.27;13.60;;;0.20;99.90;;;;;;5011163;28;20232;-64
2022/12/10 06:41:04;;;;;;;23.43;12.13;;;0.20;99.90;;;;;;5009900;28;20685;-64
2022/12/10 06:43:31;;;;;;;24.30;12.10;;;0.20;99.90;;;;;;4976178;28;20210;-64
2022/12/10 06:45:58;;;;;;;25.27;12.50;;;0.30;99.90;;;;;;4991259;28;20318;-64
2022/12/10 06:48:25;;;;;;;22.70;13.03;;;0.30;99.90;;;;;;5009190;28;20316;-64
2022/12/10 06:50:52;;;;;;;26.03;12.53;;;0.00;99.90;;;;;;4984877;28;20209;-64
2022/12/10 06:53:20;;;;;;;24.23;12.83;;;0.40;99.90;;;;;;5009089;28;20357;-64
2022/12/10 06:55:47;;;;;;;24.30;13.17;;;0.30;99.90;;;;;;5006491;28;20248;-64
2022/12/10 06:58:14;;;;;;;25.60;13.27;;;0.20;99.90;;;;;;4979833;28;20375;-64
2022/12/10 07:00:40;;;;;;;24.10;11.93;;;0.30;99.90;;;;;;4992333;28;20233;-64
2022/12/10 07:03:07;;;;;;;25.73;12.57;;;0.20;99.90;;;;;;5001984;28;20296;-64
2022/12/10 07:05:34;;;;;;;23.60;11.97;;;0.30;99.90;;;;;;4992476;28;20647;-64
2022/12/10 07:08:01;;;;;;;20.77;11.37;;;0.30;99.90;;;;;;4985425;28;20347;-64
2022/12/10 07:10:32;;;;;;;25.70;12.27;;;0.30;99.90;;;;;;5006542;28;20312;-64
2022/12/10 07:13:00;;;;;;;21.17;10.90;;;0.30;99.90;;;;;;4966110;28;20261;-64
2022/12/10 07:15:28;;;;;;;21.17;12.53;;;0.30;99.90;;;;;;4994841;28;20718;-64
2022/12/10 07:17:55;;;;;;;24.40;11.67;;;0.30;99.90;;;;;;5001784;28;20683;-64
2022/12/10 07:20:22;;;;;;;22.00;12.33;;;0.30;99.90;;;;;;5009090;28;20252;-64
2022/12/10 07:22:49;;;;;;;20.87;12.40;;;0.40;99.90;;;;;;4999016;28;21091;-64
2022/12/10 07:25:16;;;;;;;26.13;12.53;;;0.80;99.90;;;;;;5005324;28;20284;-64
2022/12/10 07:27:44;;;;;;;22.73;12.97;;;0.50;99.90;;;;;;4974230;28;20215;-64
2022/12/10 07:30:12;;;;;;;25.77;13.20;;;0.50;99.90;;;;;;4989223;28;21210;-65
2022/12/10 07:32:39;;;;;;;25.53;13.50;;;0.50;99.90;;;;;;5003548;28;20203;-64
2022/12/10 07:35:06;;;;;;;23.63;12.13;;;0.50;99.90;;;;;;5000904;28;20317;-64
2022/12/10 07:37:34;;;;;;;23.80;13.30;;;0.60;99.90;;;;;;4989412;28;20293;-64
2022/12/10 07:40:01;;;;;;;21.20;12.20;;;0.50;99.90;;;;;;4993113;28;20341;-64
2022/12/10 07:42:28;;;;;;;19.77;11.47;;;0.50;99.90;;;;;;5001749;28;20709;-64
2022/12/10 07:44:56;;;;;;;23.83;12.37;;;0.50;99.90;;;;;;4964877;28;20795;-64
2022/12/10 07:47:23;;;;;;;23.10;12.73;;;0.50;99.90;;;;;;4998995;28;20238;-64
2022/12/10 07:49:50;;;;;;;21.83;12.73;;;0.50;99.90;;;;;;5004956;28;20345;-64
2022/12/10 07:52:17;;;;;;;27.33;13.30;;;0.50;99.90;;;;;;4992121;28;20344;-64
2022/12/10 07:54:43;;;;;;;25.23;12.90;;;0.50;99.90;;;;;;4993827;28;20428;-63
2022/12/10 07:57:10;;;;;;;25.67;13.60;;;0.60;99.90;;;;;;5002454;28;20285;-64
2022/12/10 07:59:37;;;;;;;23.10;13.17;;;0.60;99.90;;;;;;4977222;28;20934;-64
2022/12/10 08:02:05;;;;;;;24.03;12.70;;;0.50;99.90;;;;;;4982319;28;20298;-64
2022/12/10 08:04:32;;;;;;;25.43;15.03;;;0.60;99.90;;;;;;5005356;28;20304;-64
2022/12/10 08:06:59;;;;;;;28.50;14.80;;;0.70;99.90;;;;;;4969157;28;20237;-64
2022/12/10 08:09:26;;;;;;;26.47;14.00;;;0.70;99.90;;;;;;4976906;28;20261;-64
2022/12/10 08:11:53;;;;;;;25.00;14.47;;;0.70;99.90;;;;;;4990656;28;21378;-64
2022/12/10 08:14:20;;;;;;;21.90;12.67;;;0.60;99.90;;;;;;4960022;28;20237;-64
2022/12/10 08:16:47;;;;;;;21.40;12.63;;;0.70;99.90;;;;;;4983830;28;20313;-64
2022/12/10 08:19:15;;;;;;;23.27;12.97;;;0.70;99.90;;;;;;5004574;28;20615;-63
2022/12/10 08:21:43;;;;;;;29.13;15.07;;;0.70;99.90;;;;;;5001688;28;20258;-64
2022/12/10 08:24:10;;;;;;;29.43;14.87;;;0.80;99.90;;;;;;4991008;28;20261;-65
2022/12/10 08:26:38;;;;;;;26.40;13.33;;;0.80;99.90;;;;;;4994083;28;20364;-64
2022/12/10 08:29:05;;;;;;;23.60;13.90;;;0.80;99.90;;;;;;4997117;28;20555;-64
2022/12/10 08:31:32;;;;;;;23.93;12.73;;;0.80;99.90;;;;;;4963075;28;20332;-64
2022/12/10 08:33:59;;;;;;;28.77;13.73;;;0.80;99.90;;;;;;4999093;28;20238;-64
2022/12/10 08:36:27;;;;;;;27.90;13.40;;;0.80;99.90;;;;;;5007871;28;20286;-64
2022/12/10 08:38:56;;;;;;;26.47;14.20;;;0.90;99.90;;;;;;5003953;28;20340;-64
2022/12/10 08:41:23;;;;;;;23.67;14.20;;;0.80;99.90;;;;;;4987321;28;20317;-64
2022/12/10 08:43:52;;;;;;;26.37;15.17;;;0.90;99.90;;;;;;4996135;28;20297;-64
2022/12/10 08:46:19;;;;;;;25.73;14.40;;;0.90;99.90;;;;;;4979777;28;20228;-64
2022/12/10 08:48:46;;;;;;;24.80;14.50;;;0.80;99.90;;;;;;4986969;28;20740;-64
2022/12/10 08:51:16;;;;;;;23.40;13.47;;;0.90;99.90;;;;;;4999504;28;20350;-64
2022/12/10 08:53:44;;;;;;;25.53;12.50;;;0.90;99.90;;;;;;4999675;28;20395;-64
2022/12/10 08:56:12;;;;;;;26.93;13.70;;;0.90;99.90;;;;;;4984592;28;20227;-63
2022/12/10 08:58:39;;;;;;;23.07;13.50;;;1.00;99.90;;;;;;4969837;28;20386;-64
2022/12/10 09:01:11;;;;;;;24.40;13.57;;;0.90;99.90;;;;;;4945448;28;20227;-64
2022/12/10 09:03:38;;;;;;;25.70;13.50;;;0.90;99.90;;;;;;4973227;28;20223;-64
2022/12/10 09:06:07;;;;;;;23.27;13.07;;;0.90;99.90;;;;;;4975098;28;20235;-64
2022/12/10 09:08:34;;;;;;;22.50;12.83;;;1.00;99.90;;;;;;4997413;28;20222;-64
2022/12/10 09:11:08;;;;;;;25.33;14.20;;;1.00;99.90;;;;;;4967944;28;20266;-64
2022/12/10 09:13:35;;;;;;;26.57;13.40;;;1.00;99.90;;;;;;4991151;28;20303;-64
2022/12/10 09:16:02;;;;;;;21.53;12.97;;;1.00;99.90;;;;;;4966596;28;20246;-64
2022/12/10 09:18:29;;;;;;;21.50;12.57;;;1.00;99.90;;;;;;4973037;28;20497;-63
2022/12/10 09:20:56;;;;;;;23.03;13.57;;;1.10;99.90;;;;;;4967580;28;20798;-64
2022/12/10 09:23:23;;;;;;;22.67;13.63;;;1.10;99.90;;;;;;4990015;28;20278;-63
2022/12/10 09:25:50;;;;;;;20.23;11.97;;;1.10;99.90;;;;;;4995969;28;20397;-64
2022/12/10 09:28:18;;;;;;;21.83;12.47;;;1.10;99.90;;;;;;4978663;28;20230;-64
2022/12/10 09:30:45;;;;;;;21.87;11.90;;;1.10;99.90;;;;;;4966734;28;20232;-64
2022/12/10 09:33:12;;;;;;;23.33;13.47;;;1.10;99.90;;;;;;4964557;28;20567;-64
2022/12/10 09:35:42;;;;;;;20.03;11.47;;;1.10;99.90;;;;;;4984863;28;20280;-64
2022/12/10 09:38:09;;;;;;;25.47;13.37;;;1.10;99.90;;;;;;4978220;28;20212;-64
2022/12/10 09:40:41;;;;;;;21.37;12.20;;;1.20;99.90;;;;;;4999975;28;20326;-64
2022/12/10 09:43:17;;;;;;;21.60;11.50;;;1.20;99.90;;;;;;4988523;28;20253;-64
2022/12/10 09:45:55;;;;;;;21.63;11.90;;;1.20;99.90;;;;;;4985222;28;20729;-64
2022/12/10 09:48:30;;;;;;;20.23;12.53;;;1.90;99.90;;;;;;4964255;28;21354;-64
2022/12/10 09:51:06;;;;;;;19.60;11.80;;;1.20;99.90;;;;;;4979359;28;20717;-64
2022/12/10 09:53:34;;;;;;;21.50;12.20;;;1.30;99.90;;;;;;4989868;28;20208;-64
2022/12/10 09:56:01;;;;;;;23.77;12.70;;;1.30;99.90;;;;;;4998145;28;20407;-64
2022/12/10 09:58:29;;;;;;;23.83;12.67;;;1.30;99.90;;;;;;4968105;28;20858;-64
2022/12/10 10:01:00;;;;;;;18.57;10.60;;;1.40;99.90;;;;;;4988427;28;20565;-64
2022/12/10 10:03:27;;;;;;;20.53;11.83;;;1.40;99.90;;;;;;4990999;28;21661;-64
2022/12/10 10:05:56;;;;;;;20.73;11.40;;;1.40;99.90;;;;;;4973469;28;20210;-65
2022/12/10 10:08:29;;;;;;;23.80;12.50;;;1.40;99.90;;;;;;4974306;28;20204;-65
2022/12/10 10:10:56;;;;;;;22.23;11.10;;;1.40;99.90;;;;;;4996207;28;20373;-64
2022/12/10 10:13:36;;;;;;;24.17;12.20;;;1.40;99.90;;;;;;5001853;28;20324;-64
2022/12/10 10:16:23;;;;;;;23.23;12.27;;;1.40;99.90;;;;;;4956562;28;20233;-65
2022/12/10 10:18:57;;;;;;;24.97;12.40;;;1.40;99.90;;;;;;4978476;28;20208;-64
2022/12/10 10:21:26;;;;;;;18.77;11.37;;;1.40;99.90;;;;;;4960004;28;20460;-64
2022/12/10 10:23:53;;;;;;;23.00;11.40;;;1.40;99.90;;;;;;4969918;28;20843;-64
2022/12/10 10:26:20;;;;;;;19.53;11.00;;;1.40;99.90;;;;;;4993674;28;20251;-63
2022/12/10 10:28:49;;;;;;;21.00;11.77;;;1.40;99.90;;;;;;4986272;28;20233;-63
2022/12/10 10:31:20;;;;;;;21.10;11.27;;;1.40;99.90;;;;;;4983167;28;20299;-64
2022/12/10 10:33:56;;;;;;;18.83;11.23;;;1.40;99.90;;;;;;4987242;28;20348;-63
2022/12/10 10:36:29;;;;;;;20.20;11.23;;;1.40;99.90;;;;;;4967641;28;20243;-63
2022/12/10 10:38:56;;;;;;;20.60;11.70;;;1.40;99.90;;;;;;4979924;28;20233;-62
2022/12/10 10:41:26;;;;;;;22.77;12.23;;;1.40;99.90;;;;;;4988438;28;20250;-63
2022/12/10 10:44:01;;;;;;;26.70;14.43;;;1.50;99.90;;;;;;4998960;28;20200;-66
2022/12/10 10:46:30;;;;;;;19.37;11.40;;;1.50;99.90;;;;;;4992950;28;20226;-64
2022/12/10 10:49:17;;;;;;;24.17;12.70;;;1.50;99.90;;;;;;4968030;28;20519;-64
2022/12/10 10:51:45;;;;;;;16.97;11.07;;;1.50;99.90;;;;;;4952917;28;20329;-64
2022/12/10 10:54:12;;;;;;;22.17;10.87;;;1.50;99.90;;;;;;4995357;28;20217;-64
2022/12/10 10:56:42;;;;;;;19.00;11.13;;;1.60;99.90;;;;;;4989403;28;20298;-64
2022/12/10 10:59:31;;;;;;;18.20;10.03;;;1.60;99.90;;;;;;5002561;28;20221;-65
2022/12/10 11:02:05;;;;;;;19.13;11.53;;;1.60;99.90;;;;;;4992599;28;20213;-64
2022/12/10 11:04:39;;;;;;;22.90;12.70;;;1.60;99.90;;;;;;4979754;28;20563;-64
2022/12/10 11:07:15;;;;;;;21.20;11.27;;;1.60;99.90;;;;;;4970241;28;20297;-64
2022/12/10 11:09:44;;;;;;;19.60;11.43;;;1.60;99.90;;;;;;4999504;28;20489;-64
2022/12/10 11:12:30;;;;;;;23.53;11.60;;;1.60;99.90;;;;;;4989793;28;20213;-64
2022/12/10 11:14:58;;;;;;;16.73;9.73;;;1.60;99.90;;;;;;4998826;28;20298;-64
2022/12/10 11:17:27;;;;;;;17.10;10.27;;;1.70;99.90;;;;;;4979972;28;20259;-64
2022/12/10 11:19:58;;;;;;;13.93;9.93;;;1.70;99.90;;;;;;4987588;28;20200;-64
2022/12/10 11:22:27;;;;;;;19.30;10.63;;;1.70;99.90;;;;;;4974490;28;20259;-64
2022/12/10 11:24:55;;;;;;;20.37;11.77;;;1.70;99.90;;;;;;5001951;28;20751;-64
2022/12/10 11:27:45;;;;;;;22.67;12.87;;;1.70;99.90;;;;;;4986867;28;20374;-64
2022/12/10 11:30:19;;;;;;;35.03;16.67;;;1.70;99.90;;;;;;5002663;28;20876;-64
2022/12/10 11:33:10;;;;;;;35.10;15.17;;;1.70;99.90;;;;;;4987311;28;20557;-64
2022/12/10 11:35:50;;;;;;;18.03;11.53;;;1.70;99.90;;;;;;4975446;28;20210;-64
2022/12/10 11:38:24;;;;;;;16.70;10.20;;;1.80;99.90;;;;;;4963419;28;20308;-64
2022/12/10 11:40:55;;;;;;;18.70;10.60;;;1.80;99.90;;;;;;4997560;28;20626;-64
2022/12/10 11:43:44;;;;;;;16.73;9.70;;;1.80;99.90;;;;;;4981767;28;20291;-64
2022/12/10 11:46:26;;;;;;;16.67;9.77;;;1.80;99.90;;;;;;4995777;28;20200;-64
2022/12/10 11:49:07;;;;;;;14.90;9.20;;;1.80;99.90;;;;;;4978164;28;20506;-64
2022/12/10 11:51:41;;;;;;;16.07;10.27;;;1.80;99.90;;;;;;4994662;28;20343;-64
2022/12/10 11:54:37;;;;;;;18.30;10.30;;;1.80;99.90;;;;;;4969400;28;20782;-64
2022/12/10 11:57:10;;;;;;;19.23;10.77;;;1.80;99.90;;;;;;4987483;28;20536;-64
2022/12/10 11:59:45;;;;;;;17.17;10.53;;;1.80;99.90;;;;;;5001476;28;20319;-64
2022/12/10 12:02:32;;;;;;;17.73;10.53;;;1.80;99.90;;;;;;4989232;28;21493;-65
2022/12/10 12:05:20;;;;;;;22.00;10.27;;;1.80;99.90;;;;;;4975553;28;20333;-64
2022/12/10 12:07:57;;;;;;;16.93;10.70;;;1.80;99.90;;;;;;4999918;28;20456;-64
2022/12/10 12:10:45;;;;;;;19.70;10.73;;;1.80;99.90;;;;;;4973875;28;20625;-64
2022/12/10 12:13:16;;;;;;;27.07;12.90;;;1.80;99.90;;;;;;4947594;28;20245;-65
2022/12/10 12:15:47;;;;;;;25.77;14.30;;;1.80;99.90;;;;;;4994341;28;20249;-65
2022/12/10 12:18:19;;;;;;;21.40;13.07;;;1.80;99.90;;;;;;4956604;28;20284;-64
2022/12/10 12:20:52;;;;;;;21.53;12.27;;;1.80;99.90;;;;;;4952436;28;20259;-64
2022/12/10 12:23:25;;;;;;;20.03;11.27;;;1.80;99.90;;;;;;4975834;28;20238;-64
2022/12/10 12:25:56;;;;;;;19.20;12.37;;;1.70;99.90;;;;;;4956798;28;20244;-64
2022/12/10 12:28:29;;;;;;;17.67;10.70;;;1.70;99.90;;;;;;4980057;28;20233;-63
2022/12/10 12:31:02;;;;;;;19.50;11.87;;;1.80;99.90;;;;;;4991499;28;20278;-63
2022/12/10 12:33:36;;;;;;;19.57;11.30;;;1.80;99.90;;;;;;4956773;28;23175;-64
2022/12/10 12:36:10;;;;;;;19.37;10.33;;;1.80;99.90;;;;;;4965394;28;20316;-64
2022/12/10 12:38:44;;;;;;;15.23;9.93;;;1.80;99.90;;;;;;4981108;28;21830;-63
2022/12/10 12:41:17;;;;;;;19.37;10.63;;;1.80;99.90;;;;;;4963783;28;20213;-63
2022/12/10 12:43:52;;;;;;;20.47;11.77;;;1.80;99.90;;;;;;5004767;28;20198;-64
2022/12/10 12:46:21;;;;;;;20.30;12.27;;;1.80;99.90;;;;;;4980374;28;20220;-64
2022/12/10 12:48:57;;;;;;;23.40;12.00;;;1.80;99.90;;;;;;4974213;28;20230;-64
2022/12/10 12:51:30;;;;;;;24.03;13.33;;;1.80;99.90;;;;;;4971659;28;20795;-64
2022/12/10 12:53:56;;;;;;;25.53;12.97;;;1.80;99.90;;;;;;4985292;28;20228;-64
2022/12/10 12:56:36;;;;;;;29.40;14.23;;;1.70;99.90;;;;;;4951061;28;21783;-65
2022/12/10 12:59:12;;;;;;;25.67;14.13;;;1.80;99.90;;;;;;4997688;28;20229;-64
2022/12/10 13:01:44;;;;;;;24.57;13.63;;;1.70;99.90;;;;;;4979562;28;20293;-64